sensor_id;sensor_type;location;lat;lon;timestamp;temperature;humidity
8939;DHT22;4504;48.810;9.172;2022-11-15T00:01:33;10.40;99.90
8939;DHT22;4504;48.810;9.172;2022-11-15T00:04:20;10.30;99.90
8939;DHT22;4504;48.810;9.172;2022-11-15T00:07:06;10.40;99.90
8939;DHT22;4504;48.810;9.172;2022-11-15T00:09:52;10.30;99.90
8939;DHT22;4504;48.810;9.172;2022-11-15T00:12:38;10.30;99.90
8939;DHT22;4504;48.810;9.172;2022-11-15T00:15:25;10.30;99.90
8939;DHT22;4504;48.810;9.172;2022-11-15T00:18:12;10.30;99.90
8939;DHT22;4504;48.810;9.172;2022-11-15T00:21:03;10.50;99.90
8939;DHT22;4504;48.810;9.172;2022-11-15T00:23:49;10.50;99.90
8939;DHT22;4504;48.810;9.172;2022-11-15T00:26:35;10.40;99.90
8939;DHT22;4504;48.810;9.172;2022-11-15T00:29:20;10.40;99.90
8939;DHT22;4504;48.810;9.172;2022-11-15T00:32:08;10.80;99.90
8939;DHT22;4504;48.810;9.172;2022-11-15T00:34:54;10.40;99.90
8939;DHT22;4504;48.810;9.172;2022-11-15T00:37:40;10.40;99.90
8939;DHT22;4504;48.810;9.172;2022-11-15T00:40:26;10.40;99.90
8939;DHT22;4504;48.810;9.172;2022-11-15T00:43:12;10.50;99.90
8939;DHT22;4504;48.810;9.172;2022-11-15T00:45:58;10.50;99.90
8939;DHT22;4504;48.810;9.172;2022-11-15T00:48:45;10.50;99.90
8939;DHT22;4504;48.810;9.172;2022-11-15T00:51:31;10.50;99.90
8939;DHT22;4504;48.810;9.172;2022-11-15T00:54:16;10.50;99.90
8939;DHT22;4504;48.810;9.172;2022-11-15T00:57:02;10.40;99.90
8939;DHT22;4504;48.810;9.172;2022-11-15T00:59:48;10.50;99.90
8939;DHT22;4504;48.810;9.172;2022-11-15T01:02:34;10.40;99.90
8939;DHT22;4504;48.810;9.172;2022-11-15T01:05:21;10.40;99.90
8939;DHT22;4504;48.810;9.172;2022-11-15T01:08:12;10.40;99.90
8939;DHT22;4504;48.810;9.172;2022-11-15T01:11:00;10.40;99.90
8939;DHT22;4504;48.810;9.172;2022-11-15T01:13:46;10.40;99.90
8939;DHT22;4504;48.810;9.172;2022-11-15T01:16:32;10.50;99.90
8939;DHT22;4504;48.810;9.172;2022-11-15T01:19:17;10.30;99.90
8939;DHT22;4504;48.810;9.172;2022-11-15T01:22:04;10.30;99.90
8939;DHT22;4504;48.810;9.172;2022-11-15T01:24:50;10.30;99.90
8939;DHT22;4504;48.810;9.172;2022-11-15T01:27:36;10.20;99.90
8939;DHT22;4504;48.810;9.172;2022-11-15T01:30:21;10.50;99.90
8939;DHT22;4504;48.810;9.172;2022-11-15T01:33:07;10.20;99.90
8939;DHT22;4504;48.810;9.172;2022-11-15T01:35:53;10.10;99.90
8939;DHT22;4504;48.810;9.172;2022-11-15T01:38:40;10.10;99.90
8939;DHT22;4504;48.810;9.172;2022-11-15T01:41:29;10.10;99.90
8939;DHT22;4504;48.810;9.172;2022-11-15T01:44:41;10.10;99.90
8939;DHT22;4504;48.810;9.172;2022-11-15T01:47:29;10.00;99.90
8939;DHT22;4504;48.810;9.172;2022-11-15T01:50:19;10.00;99.90
8939;DHT22;4504;48.810;9.172;2022-11-15T01:53:06;9.90;99.90
8939;DHT22;4504;48.810;9.172;2022-11-15T01:55:53;9.90;99.90
8939;DHT22;4504;48.810;9.172;2022-11-15T01:58:40;9.90;99.90
8939;DHT22;4504;48.810;9.172;2022-11-15T02:01:27;9.90;99.90
8939;DHT22;4504;48.810;9.172;2022-11-15T02:04:16;9.90;99.90
8939;DHT22;4504;48.810;9.172;2022-11-15T02:07:03;9.80;99.90
8939;DHT22;4504;48.810;9.172;2022-11-15T02:09:50;9.80;99.90
8939;DHT22;4504;48.810;9.172;2022-11-15T02:12:38;9.80;99.90
8939;DHT22;4504;48.810;9.172;2022-11-15T02:15:30;9.80;99.90
8939;DHT22;4504;48.810;9.172;2022-11-15T02:18:24;9.80;99.90
8939;DHT22;4504;48.810;9.172;2022-11-15T02:21:18;9.80;99.90
8939;DHT22;4504;48.810;9.172;2022-11-15T02:31:16;9.70;99.90
8939;DHT22;4504;48.810;9.172;2022-11-15T02:34:06;9.70;99.90
8939;DHT22;4504;48.810;9.172;2022-11-15T02:37:03;10.20;99.90
8939;DHT22;4504;48.810;9.172;2022-11-15T02:40:00;9.70;99.90
8939;DHT22;4504;48.810;9.172;2022-11-15T02:42:52;9.70;99.90
8939;DHT22;4504;48.810;9.172;2022-11-15T02:46:01;9.70;99.90
8939;DHT22;4504;48.810;9.172;2022-11-15T02:48:51;9.70;99.90
8939;DHT22;4504;48.810;9.172;2022-11-15T02:51:37;9.80;99.90
8939;DHT22;4504;48.810;9.172;2022-11-15T02:54:26;9.70;99.90
8939;DHT22;4504;48.810;9.172;2022-11-15T02:57:16;9.70;99.90
8939;DHT22;4504;48.810;9.172;2022-11-15T03:00:08;9.60;99.90
8939;DHT22;4504;48.810;9.172;2022-11-15T03:03:13;9.60;99.90
8939;DHT22;4504;48.810;9.172;2022-11-15T03:06:09;9.60;99.90
8939;DHT22;4504;48.810;9.172;2022-11-15T03:09:05;9.60;99.90
8939;DHT22;4504;48.810;9.172;2022-11-15T03:11:57;9.60;99.90
8939;DHT22;4504;48.810;9.172;2022-11-15T03:14:50;9.80;99.90
8939;DHT22;4504;48.810;9.172;2022-11-15T03:17:43;9.60;99.90
8939;DHT22;4504;48.810;9.172;2022-11-15T03:20:30;9.50;99.90
8939;DHT22;4504;48.810;9.172;2022-11-15T03:23:18;9.50;99.90
8939;DHT22;4504;48.810;9.172;2022-11-15T03:26:07;9.50;99.90
8939;DHT22;4504;48.810;9.172;2022-11-15T03:28:56;9.50;99.90
8939;DHT22;4504;48.810;9.172;2022-11-15T03:31:46;9.40;99.90
8939;DHT22;4504;48.810;9.172;2022-11-15T03:34:36;9.40;99.90
8939;DHT22;4504;48.810;9.172;2022-11-15T03:37:27;9.40;99.90
8939;DHT22;4504;48.810;9.172;2022-11-15T03:40:17;9.50;99.90
8939;DHT22;4504;48.810;9.172;2022-11-15T03:43:09;9.30;99.90
8939;DHT22;4504;48.810;9.172;2022-11-15T03:46:00;9.30;99.90
8939;DHT22;4504;48.810;9.172;2022-11-15T03:48:49;9.30;99.90
8939;DHT22;4504;48.810;9.172;2022-11-15T03:51:36;9.30;99.90
8939;DHT22;4504;48.810;9.172;2022-11-15T03:54:22;9.30;99.90
8939;DHT22;4504;48.810;9.172;2022-11-15T03:57:09;9.20;99.90
8939;DHT22;4504;48.810;9.172;2022-11-15T03:59:55;9.20;99.90
8939;DHT22;4504;48.810;9.172;2022-11-15T04:02:40;9.50;99.90
8939;DHT22;4504;48.810;9.172;2022-11-15T04:05:26;9.20;99.90
8939;DHT22;4504;48.810;9.172;2022-11-15T04:08:12;9.20;99.90
8939;DHT22;4504;48.810;9.172;2022-11-15T04:10:57;9.20;99.90
8939;DHT22;4504;48.810;9.172;2022-11-15T04:13:45;9.20;99.90
8939;DHT22;4504;48.810;9.172;2022-11-15T04:16:30;9.20;99.90
8939;DHT22;4504;48.810;9.172;2022-11-15T04:19:16;9.20;99.90
8939;DHT22;4504;48.810;9.172;2022-11-15T04:22:19;9.20;99.90
8939;DHT22;4504;48.810;9.172;2022-11-15T04:25:23;9.20;99.90
8939;DHT22;4504;48.810;9.172;2022-11-15T04:28:08;9.20;99.90
8939;DHT22;4504;48.810;9.172;2022-11-15T04:30:56;9.20;99.90
8939;DHT22;4504;48.810;9.172;2022-11-15T04:33:42;9.20;99.90
8939;DHT22;4504;48.810;9.172;2022-11-15T04:36:27;9.10;99.90
8939;DHT22;4504;48.810;9.172;2022-11-15T04:39:31;9.20;99.90
8939;DHT22;4504;48.810;9.172;2022-11-15T04:42:17;9.10;99.90
8939;DHT22;4504;48.810;9.172;2022-11-15T04:45:03;9.10;99.90
8939;DHT22;4504;48.810;9.172;2022-11-15T04:47:50;9.10;99.90
8939;DHT22;4504;48.810;9.172;2022-11-15T04:50:36;9.10;99.90
8939;DHT22;4504;48.810;9.172;2022-11-15T04:53:21;9.10;99.90
8939;DHT22;4504;48.810;9.172;2022-11-15T04:56:07;9.20;99.90
8939;DHT22;4504;48.810;9.172;2022-11-15T04:58:53;9.10;99.90
8939;DHT22;4504;48.810;9.172;2022-11-15T05:01:38;9.20;99.90
8939;DHT22;4504;48.810;9.172;2022-11-15T05:04:26;9.20;99.90
8939;DHT22;4504;48.810;9.172;2022-11-15T05:07:11;9.10;99.90
8939;DHT22;4504;48.810;9.172;2022-11-15T05:09:56;9.00;99.90
8939;DHT22;4504;48.810;9.172;2022-11-15T05:12:42;9.10;99.90
8939;DHT22;4504;48.810;9.172;2022-11-15T05:15:28;9.00;99.90
8939;DHT22;4504;48.810;9.172;2022-11-15T05:18:14;9.10;99.90
8939;DHT22;4504;48.810;9.172;2022-11-15T05:21:04;9.00;99.90
8939;DHT22;4504;48.810;9.172;2022-11-15T05:23:50;9.00;99.90
8939;DHT22;4504;48.810;9.172;2022-11-15T05:26:36;9.00;99.90
8939;DHT22;4504;48.810;9.172;2022-11-15T05:29:22;8.90;99.90
8939;DHT22;4504;48.810;9.172;2022-11-15T05:32:08;8.90;99.90
8939;DHT22;4504;48.810;9.172;2022-11-15T05:34:54;8.80;99.90
8939;DHT22;4504;48.810;9.172;2022-11-15T05:37:42;8.90;99.90
8939;DHT22;4504;48.810;9.172;2022-11-15T05:40:29;9.00;99.90
8939;DHT22;4504;48.810;9.172;2022-11-15T05:43:15;8.90;99.90
8939;DHT22;4504;48.810;9.172;2022-11-15T05:46:02;8.90;99.90
8939;DHT22;4504;48.810;9.172;2022-11-15T05:48:50;9.00;99.90
8939;DHT22;4504;48.810;9.172;2022-11-15T05:51:36;8.90;99.90
8939;DHT22;4504;48.810;9.172;2022-11-15T05:54:24;8.90;99.90
8939;DHT22;4504;48.810;9.172;2022-11-15T05:57:10;8.90;99.90
8939;DHT22;4504;48.810;9.172;2022-11-15T05:59:56;8.90;99.90
8939;DHT22;4504;48.810;9.172;2022-11-15T06:02:41;8.90;99.90
8939;DHT22;4504;48.810;9.172;2022-11-15T06:05:27;8.90;99.90
8939;DHT22;4504;48.810;9.172;2022-11-15T06:08:13;8.90;99.90
8939;DHT22;4504;48.810;9.172;2022-11-15T06:11:04;8.90;99.90
8939;DHT22;4504;48.810;9.172;2022-11-15T06:13:50;8.90;99.90
8939;DHT22;4504;48.810;9.172;2022-11-15T06:16:36;8.90;99.90
8939;DHT22;4504;48.810;9.172;2022-11-15T06:19:22;8.90;99.90
8939;DHT22;4504;48.810;9.172;2022-11-15T06:22:11;8.80;99.90
8939;DHT22;4504;48.810;9.172;2022-11-15T06:24:56;8.90;99.90
8939;DHT22;4504;48.810;9.172;2022-11-15T06:27:44;8.90;99.90
8939;DHT22;4504;48.810;9.172;2022-11-15T06:30:29;9.00;99.90
8939;DHT22;4504;48.810;9.172;2022-11-15T06:33:15;8.80;99.90
8939;DHT22;4504;48.810;9.172;2022-11-15T06:36:01;8.80;99.90
8939;DHT22;4504;48.810;9.172;2022-11-15T06:38:47;8.80;99.90
8939;DHT22;4504;48.810;9.172;2022-11-15T06:41:34;8.80;99.90
8939;DHT22;4504;48.810;9.172;2022-11-15T06:44:21;8.80;99.90
8939;DHT22;4504;48.810;9.172;2022-11-15T06:47:07;8.80;99.90
8939;DHT22;4504;48.810;9.172;2022-11-15T06:49:53;8.90;99.90
8939;DHT22;4504;48.810;9.172;2022-11-15T06:52:38;8.80;99.90
8939;DHT22;4504;48.810;9.172;2022-11-15T06:55:24;8.80;99.90
8939;DHT22;4504;48.810;9.172;2022-11-15T06:58:10;8.80;99.90
8939;DHT22;4504;48.810;9.172;2022-11-15T07:01:00;8.80;99.90
8939;DHT22;4504;48.810;9.172;2022-11-15T07:03:46;8.80;99.90
8939;DHT22;4504;48.810;9.172;2022-11-15T07:06:32;8.90;99.90
8939;DHT22;4504;48.810;9.172;2022-11-15T07:09:18;8.90;99.90
8939;DHT22;4504;48.810;9.172;2022-11-15T07:12:04;8.90;99.90
8939;DHT22;4504;48.810;9.172;2022-11-15T07:14:50;8.90;99.90
8939;DHT22;4504;48.810;9.172;2022-11-15T07:17:37;8.90;99.90
8939;DHT22;4504;48.810;9.172;2022-11-15T07:20:23;9.00;99.90
8939;DHT22;4504;48.810;9.172;2022-11-15T07:23:09;8.90;99.90
8939;DHT22;4504;48.810;9.172;2022-11-15T07:25:56;9.00;99.90
8939;DHT22;4504;48.810;9.172;2022-11-15T07:28:42;9.00;99.90
8939;DHT22;4504;48.810;9.172;2022-11-15T07:31:28;9.00;99.90
8939;DHT22;4504;48.810;9.172;2022-11-15T07:34:14;9.00;99.90
8939;DHT22;4504;48.810;9.172;2022-11-15T07:37:00;9.10;99.90
8939;DHT22;4504;48.810;9.172;2022-11-15T07:39:46;9.10;99.90
8939;DHT22;4504;48.810;9.172;2022-11-15T07:42:33;9.20;99.90
8939;DHT22;4504;48.810;9.172;2022-11-15T07:45:41;9.20;99.90
8939;DHT22;4504;48.810;9.172;2022-11-15T07:48:27;9.20;99.90
8939;DHT22;4504;48.810;9.172;2022-11-15T07:51:16;9.30;99.90
8939;DHT22;4504;48.810;9.172;2022-11-15T07:54:02;9.30;99.90
8939;DHT22;4504;48.810;9.172;2022-11-15T07:56:47;9.30;99.90
8939;DHT22;4504;48.810;9.172;2022-11-15T07:59:33;9.50;99.90
8939;DHT22;4504;48.810;9.172;2022-11-15T08:02:19;9.80;99.90
8939;DHT22;4504;48.810;9.172;2022-11-15T08:05:05;9.60;99.90
8939;DHT22;4504;48.810;9.172;2022-11-15T08:07:54;9.50;99.90
8939;DHT22;4504;48.810;9.172;2022-11-15T08:10:40;9.60;99.90
8939;DHT22;4504;48.810;9.172;2022-11-15T08:13:26;10.00;99.90
8939;DHT22;4504;48.810;9.172;2022-11-15T08:16:12;9.70;99.90
8939;DHT22;4504;48.810;9.172;2022-11-15T08:18:58;9.60;99.90
8939;DHT22;4504;48.810;9.172;2022-11-15T08:21:44;9.70;99.90
8939;DHT22;4504;48.810;9.172;2022-11-15T08:24:31;9.70;99.90
8939;DHT22;4504;48.810;9.172;2022-11-15T08:27:18;9.70;99.90
8939;DHT22;4504;48.810;9.172;2022-11-15T08:30:04;9.70;99.90
8939;DHT22;4504;48.810;9.172;2022-11-15T08:32:52;9.80;99.90
8939;DHT22;4504;48.810;9.172;2022-11-15T08:35:37;9.90;99.90
8939;DHT22;4504;48.810;9.172;2022-11-15T08:38:23;9.90;99.90
8939;DHT22;4504;48.810;9.172;2022-11-15T08:41:13;9.80;99.90
8939;DHT22;4504;48.810;9.172;2022-11-15T08:44:00;9.90;99.90
8939;DHT22;4504;48.810;9.172;2022-11-15T08:46:46;9.90;99.90
8939;DHT22;4504;48.810;9.172;2022-11-15T08:49:32;10.00;99.90
8939;DHT22;4504;48.810;9.172;2022-11-15T08:52:18;10.00;99.90
8939;DHT22;4504;48.810;9.172;2022-11-15T08:55:06;10.00;99.90
8939;DHT22;4504;48.810;9.172;2022-11-15T08:57:53;10.00;99.90
8939;DHT22;4504;48.810;9.172;2022-11-15T09:00:42;10.10;99.90
8939;DHT22;4504;48.810;9.172;2022-11-15T09:03:28;10.10;99.90
8939;DHT22;4504;48.810;9.172;2022-11-15T09:06:14;10.20;99.90
8939;DHT22;4504;48.810;9.172;2022-11-15T09:09:00;10.20;99.90
8939;DHT22;4504;48.810;9.172;2022-11-15T09:11:46;10.30;99.90
8939;DHT22;4504;48.810;9.172;2022-11-15T09:14:33;10.30;99.90
8939;DHT22;4504;48.810;9.172;2022-11-15T09:17:19;10.30;99.90
8939;DHT22;4504;48.810;9.172;2022-11-15T09:20:05;10.40;99.90
8939;DHT22;4504;48.810;9.172;2022-11-15T09:22:51;10.50;99.90
8939;DHT22;4504;48.810;9.172;2022-11-15T09:25:37;10.50;99.90
8939;DHT22;4504;48.810;9.172;2022-11-15T09:28:23;10.60;99.90
8939;DHT22;4504;48.810;9.172;2022-11-15T09:31:10;10.60;99.90
8939;DHT22;4504;48.810;9.172;2022-11-15T09:33:55;10.70;99.90
8939;DHT22;4504;48.810;9.172;2022-11-15T09:36:41;11.10;99.90
8939;DHT22;4504;48.810;9.172;2022-11-15T09:39:27;10.70;99.90
8939;DHT22;4504;48.810;9.172;2022-11-15T09:42:26;10.80;99.90
8939;DHT22;4504;48.810;9.172;2022-11-15T09:45:18;10.90;99.90
8939;DHT22;4504;48.810;9.172;2022-11-15T09:48:25;10.80;99.90
8939;DHT22;4504;48.810;9.172;2022-11-15T09:51:29;10.90;99.90
8939;DHT22;4504;48.810;9.172;2022-11-15T09:54:02;11.00;99.90
8939;DHT22;4504;48.810;9.172;2022-11-15T09:56:31;11.00;99.90
8939;DHT22;4504;48.810;9.172;2022-11-15T09:59:15;11.10;99.90
8939;DHT22;4504;48.810;9.172;2022-11-15T10:01:48;11.10;99.90
8939;DHT22;4504;48.810;9.172;2022-11-15T10:04:18;11.30;99.90
8939;DHT22;4504;48.810;9.172;2022-11-15T10:06:49;11.20;99.90
8939;DHT22;4504;48.810;9.172;2022-11-15T10:09:24;11.30;99.90
8939;DHT22;4504;48.810;9.172;2022-11-15T10:11:52;11.30;99.90
8939;DHT22;4504;48.810;9.172;2022-11-15T10:14:21;11.50;99.90
8939;DHT22;4504;48.810;9.172;2022-11-15T10:17:18;11.40;99.90
8939;DHT22;4504;48.810;9.172;2022-11-15T10:19:55;11.50;99.90
8939;DHT22;4504;48.810;9.172;2022-11-15T10:22:28;11.50;99.90
8939;DHT22;4504;48.810;9.172;2022-11-15T10:25:12;11.50;99.90
8939;DHT22;4504;48.810;9.172;2022-11-15T10:27:42;11.50;99.90
8939;DHT22;4504;48.810;9.172;2022-11-15T10:30:12;11.60;99.90
8939;DHT22;4504;48.810;9.172;2022-11-15T10:32:42;11.60;99.90
8939;DHT22;4504;48.810;9.172;2022-11-15T10:35:21;11.70;99.90
8939;DHT22;4504;48.810;9.172;2022-11-15T10:37:49;11.70;99.90
8939;DHT22;4504;48.810;9.172;2022-11-15T10:40:20;11.70;99.90
8939;DHT22;4504;48.810;9.172;2022-11-15T10:42:48;11.70;99.90
8939;DHT22;4504;48.810;9.172;2022-11-15T10:45:28;11.70;99.90
8939;DHT22;4504;48.810;9.172;2022-11-15T10:48:22;11.70;99.90
8939;DHT22;4504;48.810;9.172;2022-11-15T10:50:52;11.70;99.90
8939;DHT22;4504;48.810;9.172;2022-11-15T10:53:28;11.70;99.90
8939;DHT22;4504;48.810;9.172;2022-11-15T10:56:00;11.70;99.90
8939;DHT22;4504;48.810;9.172;2022-11-15T10:58:33;11.80;99.90
8939;DHT22;4504;48.810;9.172;2022-11-15T11:01:31;11.70;99.90
8939;DHT22;4504;48.810;9.172;2022-11-15T11:04:11;11.80;99.90
8939;DHT22;4504;48.810;9.172;2022-11-15T11:06:48;11.70;99.90
8939;DHT22;4504;48.810;9.172;2022-11-15T11:09:28;11.90;99.90
8939;DHT22;4504;48.810;9.172;2022-11-15T11:11:55;11.90;99.90
8939;DHT22;4504;48.810;9.172;2022-11-15T11:14:24;11.80;99.90
8939;DHT22;4504;48.810;9.172;2022-11-15T11:16:55;11.80;99.90
8939;DHT22;4504;48.810;9.172;2022-11-15T11:19:39;11.80;99.90
8939;DHT22;4504;48.810;9.172;2022-11-15T11:22:22;11.80;99.90
8939;DHT22;4504;48.810;9.172;2022-11-15T11:25:03;11.80;99.90
8939;DHT22;4504;48.810;9.172;2022-11-15T11:27:40;11.80;99.90
8939;DHT22;4504;48.810;9.172;2022-11-15T11:30:13;11.90;99.90
8939;DHT22;4504;48.810;9.172;2022-11-15T11:33:04;11.90;99.90
8939;DHT22;4504;48.810;9.172;2022-11-15T11:35:38;11.90;99.90
8939;DHT22;4504;48.810;9.172;2022-11-15T11:38:19;11.90;99.90
8939;DHT22;4504;48.810;9.172;2022-11-15T11:40:59;11.90;99.90
8939;DHT22;4504;48.810;9.172;2022-11-15T11:43:34;11.90;99.90
8939;DHT22;4504;48.810;9.172;2022-11-15T11:46:12;12.00;99.90
8939;DHT22;4504;48.810;9.172;2022-11-15T11:48:42;12.00;99.90
8939;DHT22;4504;48.810;9.172;2022-11-15T11:51:17;12.00;99.90
8939;DHT22;4504;48.810;9.172;2022-11-15T11:53:52;12.10;99.90
8939;DHT22;4504;48.810;9.172;2022-11-15T11:56:25;12.20;99.90
8939;DHT22;4504;48.810;9.172;2022-11-15T11:58:55;12.10;99.90
8939;DHT22;4504;48.810;9.172;2022-11-15T12:01:26;12.20;99.90
8939;DHT22;4504;48.810;9.172;2022-11-15T12:03:59;12.20;99.90
8939;DHT22;4504;48.810;9.172;2022-11-15T12:06:30;12.30;99.90
8939;DHT22;4504;48.810;9.172;2022-11-15T12:09:04;12.20;99.90
8939;DHT22;4504;48.810;9.172;2022-11-15T12:11:41;12.30;99.90
8939;DHT22;4504;48.810;9.172;2022-11-15T12:14:22;12.30;99.90
8939;DHT22;4504;48.810;9.172;2022-11-15T12:16:51;12.40;99.90
8939;DHT22;4504;48.810;9.172;2022-11-15T12:19:18;12.40;99.90
8939;DHT22;4504;48.810;9.172;2022-11-15T12:21:50;12.40;99.90
8939;DHT22;4504;48.810;9.172;2022-11-15T12:24:25;12.50;99.90
8939;DHT22;4504;48.810;9.172;2022-11-15T12:26:57;12.50;99.90
8939;DHT22;4504;48.810;9.172;2022-11-15T12:29:29;12.50;99.90
8939;DHT22;4504;48.810;9.172;2022-11-15T12:31:58;12.60;99.90
8939;DHT22;4504;48.810;9.172;2022-11-15T12:34:43;12.60;99.90
8939;DHT22;4504;48.810;9.172;2022-11-15T12:40:27;12.60;99.90
8939;DHT22;4504;48.810;9.172;2022-11-15T12:43:02;12.50;99.90
8939;DHT22;4504;48.810;9.172;2022-11-15T12:45:32;12.60;99.90
8939;DHT22;4504;48.810;9.172;2022-11-15T12:52:03;12.60;99.90
8939;DHT22;4504;48.810;9.172;2022-11-15T12:54:59;12.70;99.90
8939;DHT22;4504;48.810;9.172;2022-11-15T12:57:40;12.60;99.90
8939;DHT22;4504;48.810;9.172;2022-11-15T13:03:27;12.60;99.90
8939;DHT22;4504;48.810;9.172;2022-11-15T13:06:05;12.50;99.90
8939;DHT22;4504;48.810;9.172;2022-11-15T13:08:47;12.60;99.90
8939;DHT22;4504;48.810;9.172;2022-11-15T13:11:43;12.50;99.90
8939;DHT22;4504;48.810;9.172;2022-11-15T13:14:48;12.60;99.90
8939;DHT22;4504;48.810;9.172;2022-11-15T13:17:29;12.60;99.90
8939;DHT22;4504;48.810;9.172;2022-11-15T13:22:45;12.60;99.90
8939;DHT22;4504;48.810;9.172;2022-11-15T13:25:32;12.60;99.90
8939;DHT22;4504;48.810;9.172;2022-11-15T13:28:11;12.60;99.90
8939;DHT22;4504;48.810;9.172;2022-11-15T13:30:51;12.70;99.90
8939;DHT22;4504;48.810;9.172;2022-11-15T13:33:22;12.60;99.90
8939;DHT22;4504;48.810;9.172;2022-11-15T13:35:51;12.60;99.90
8939;DHT22;4504;48.810;9.172;2022-11-15T13:38:26;12.70;99.90
8939;DHT22;4504;48.810;9.172;2022-11-15T13:40:54;12.60;99.90
8939;DHT22;4504;48.810;9.172;2022-11-15T13:43:33;12.60;99.90
8939;DHT22;4504;48.810;9.172;2022-11-15T13:46:09;12.60;99.90
8939;DHT22;4504;48.810;9.172;2022-11-15T13:48:37;12.60;99.90
8939;DHT22;4504;48.810;9.172;2022-11-15T13:51:08;12.60;99.90
8939;DHT22;4504;48.810;9.172;2022-11-15T13:53:38;12.60;99.90
8939;DHT22;4504;48.810;9.172;2022-11-15T13:56:07;12.60;99.90
8939;DHT22;4504;48.810;9.172;2022-11-15T13:58:37;12.60;99.90
8939;DHT22;4504;48.810;9.172;2022-11-15T14:01:06;12.60;99.90
8939;DHT22;4504;48.810;9.172;2022-11-15T14:03:37;12.60;99.90
8939;DHT22;4504;48.810;9.172;2022-11-15T14:06:10;12.60;99.90
8939;DHT22;4504;48.810;9.172;2022-11-15T14:08:38;12.70;99.90
8939;DHT22;4504;48.810;9.172;2022-11-15T14:11:08;12.60;99.90
8939;DHT22;4504;48.810;9.172;2022-11-15T14:13:36;12.60;99.90
8939;DHT22;4504;48.810;9.172;2022-11-15T14:16:17;12.60;99.90
8939;DHT22;4504;48.810;9.172;2022-11-15T14:18:46;12.60;99.90
8939;DHT22;4504;48.810;9.172;2022-11-15T14:21:14;12.60;99.90
8939;DHT22;4504;48.810;9.172;2022-11-15T14:23:41;12.60;99.90
8939;DHT22;4504;48.810;9.172;2022-11-15T14:26:26;12.60;99.90
8939;DHT22;4504;48.810;9.172;2022-11-15T14:28:54;12.70;99.90
8939;DHT22;4504;48.810;9.172;2022-11-15T14:31:23;12.60;99.90
8939;DHT22;4504;48.810;9.172;2022-11-15T14:33:50;12.50;99.90
8939;DHT22;4504;48.810;9.172;2022-11-15T14:36:19;12.60;99.90
8939;DHT22;4504;48.810;9.172;2022-11-15T14:38:46;12.60;99.90
8939;DHT22;4504;48.810;9.172;2022-11-15T14:41:19;12.50;99.90
8939;DHT22;4504;48.810;9.172;2022-11-15T14:43:47;12.50;99.90
8939;DHT22;4504;48.810;9.172;2022-11-15T14:46:14;12.50;99.90
8939;DHT22;4504;48.810;9.172;2022-11-15T14:48:43;12.50;99.90
8939;DHT22;4504;48.810;9.172;2022-11-15T14:51:12;12.60;99.90
8939;DHT22;4504;48.810;9.172;2022-11-15T14:53:40;12.50;99.90
8939;DHT22;4504;48.810;9.172;2022-11-15T14:56:08;12.50;99.90
8939;DHT22;4504;48.810;9.172;2022-11-15T14:58:35;12.60;99.90
8939;DHT22;4504;48.810;9.172;2022-11-15T15:01:10;12.50;99.90
8939;DHT22;4504;48.810;9.172;2022-11-15T15:03:39;12.50;99.90
8939;DHT22;4504;48.810;9.172;2022-11-15T15:06:07;12.50;99.90
8939;DHT22;4504;48.810;9.172;2022-11-15T15:08:35;12.50;99.90
8939;DHT22;4504;48.810;9.172;2022-11-15T15:11:07;12.50;99.90
8939;DHT22;4504;48.810;9.172;2022-11-15T15:13:37;12.60;99.90
8939;DHT22;4504;48.810;9.172;2022-11-15T15:16:04;12.50;99.90
8939;DHT22;4504;48.810;9.172;2022-11-15T15:18:31;12.50;99.90
8939;DHT22;4504;48.810;9.172;2022-11-15T15:20:59;12.50;99.90
8939;DHT22;4504;48.810;9.172;2022-11-15T15:23:34;12.50;99.90
8939;DHT22;4504;48.810;9.172;2022-11-15T15:26:01;12.40;99.90
8939;DHT22;4504;48.810;9.172;2022-11-15T15:28:28;12.50;99.90
8939;DHT22;4504;48.810;9.172;2022-11-15T15:30:55;12.40;99.90
8939;DHT22;4504;48.810;9.172;2022-11-15T15:33:22;12.40;99.90
8939;DHT22;4504;48.810;9.172;2022-11-15T15:35:49;12.40;99.90
8939;DHT22;4504;48.810;9.172;2022-11-15T15:38:16;12.40;99.90
8939;DHT22;4504;48.810;9.172;2022-11-15T15:40:45;12.40;99.90
8939;DHT22;4504;48.810;9.172;2022-11-15T15:43:12;12.40;99.90
8939;DHT22;4504;48.810;9.172;2022-11-15T15:45:40;12.30;99.90
8939;DHT22;4504;48.810;9.172;2022-11-15T15:48:10;12.30;99.90
8939;DHT22;4504;48.810;9.172;2022-11-15T15:50:39;12.40;99.90
8939;DHT22;4504;48.810;9.172;2022-11-15T15:53:09;12.40;99.90
8939;DHT22;4504;48.810;9.172;2022-11-15T15:55:37;12.40;99.90
8939;DHT22;4504;48.810;9.172;2022-11-15T15:58:05;12.30;99.90
8939;DHT22;4504;48.810;9.172;2022-11-15T16:00:33;12.30;99.90
8939;DHT22;4504;48.810;9.172;2022-11-15T16:03:00;12.30;99.90
8939;DHT22;4504;48.810;9.172;2022-11-15T16:05:27;12.40;99.90
8939;DHT22;4504;48.810;9.172;2022-11-15T16:07:55;12.40;99.90
8939;DHT22;4504;48.810;9.172;2022-11-15T16:10:23;12.40;99.90
8939;DHT22;4504;48.810;9.172;2022-11-15T16:12:52;12.50;99.90
8939;DHT22;4504;48.810;9.172;2022-11-15T16:15:22;12.30;99.90
8939;DHT22;4504;48.810;9.172;2022-11-15T16:17:51;12.30;99.90
8939;DHT22;4504;48.810;9.172;2022-11-15T16:20:29;12.40;99.90
8939;DHT22;4504;48.810;9.172;2022-11-15T16:22:56;12.40;99.90
8939;DHT22;4504;48.810;9.172;2022-11-15T16:25:23;12.40;99.90
8939;DHT22;4504;48.810;9.172;2022-11-15T16:27:51;12.40;99.90
8939;DHT22;4504;48.810;9.172;2022-11-15T16:30:22;12.40;99.90
8939;DHT22;4504;48.810;9.172;2022-11-15T16:32:49;12.40;99.90
8939;DHT22;4504;48.810;9.172;2022-11-15T16:35:17;12.40;99.90
8939;DHT22;4504;48.810;9.172;2022-11-15T16:37:44;12.40;99.90
8939;DHT22;4504;48.810;9.172;2022-11-15T16:40:25;12.50;99.90
8939;DHT22;4504;48.810;9.172;2022-11-15T16:42:53;12.40;99.90
8939;DHT22;4504;48.810;9.172;2022-11-15T16:45:22;12.40;99.90
8939;DHT22;4504;48.810;9.172;2022-11-15T16:47:49;12.50;99.90
8939;DHT22;4504;48.810;9.172;2022-11-15T16:50:21;12.50;99.90
8939;DHT22;4504;48.810;9.172;2022-11-15T16:52:51;12.50;99.90
8939;DHT22;4504;48.810;9.172;2022-11-15T16:55:19;12.50;99.90
8939;DHT22;4504;48.810;9.172;2022-11-15T16:57:46;12.50;99.90
8939;DHT22;4504;48.810;9.172;2022-11-15T17:00:14;12.50;99.90
8939;DHT22;4504;48.810;9.172;2022-11-15T17:02:44;12.50;99.90
8939;DHT22;4504;48.810;9.172;2022-11-15T17:05:12;12.50;99.90
8939;DHT22;4504;48.810;9.172;2022-11-15T17:07:40;12.50;99.90
8939;DHT22;4504;48.810;9.172;2022-11-15T17:10:10;12.50;99.90
8939;DHT22;4504;48.810;9.172;2022-11-15T17:12:37;12.60;99.90
8939;DHT22;4504;48.810;9.172;2022-11-15T17:15:05;12.40;99.90
8939;DHT22;4504;48.810;9.172;2022-11-15T17:17:32;12.40;99.90
8939;DHT22;4504;48.810;9.172;2022-11-15T17:20:02;12.40;99.90
8939;DHT22;4504;48.810;9.172;2022-11-15T17:22:30;12.40;99.90
8939;DHT22;4504;48.810;9.172;2022-11-15T17:24:57;12.50;99.90
8939;DHT22;4504;48.810;9.172;2022-11-15T17:27:24;12.40;99.90
8939;DHT22;4504;48.810;9.172;2022-11-15T17:29:51;12.40;99.90
8939;DHT22;4504;48.810;9.172;2022-11-15T17:32:18;12.40;99.90
8939;DHT22;4504;48.810;9.172;2022-11-15T17:34:45;12.50;99.90
8939;DHT22;4504;48.810;9.172;2022-11-15T17:37:14;12.40;99.90
8939;DHT22;4504;48.810;9.172;2022-11-15T17:39:41;12.50;99.90
8939;DHT22;4504;48.810;9.172;2022-11-15T17:42:09;12.40;99.90
8939;DHT22;4504;48.810;9.172;2022-11-15T17:44:36;12.40;99.90
8939;DHT22;4504;48.810;9.172;2022-11-15T17:47:03;12.40;99.90
8939;DHT22;4504;48.810;9.172;2022-11-15T17:49:30;12.40;99.90
8939;DHT22;4504;48.810;9.172;2022-11-15T17:51:59;12.40;99.90
8939;DHT22;4504;48.810;9.172;2022-11-15T17:54:28;12.40;99.90